Weather at Mc Clellan-Palomar Airport

Public forecast

Using degrees Fahrenheit for public forecast. Weather courtesy of forecast.io.

Current aviation weather report (METAR) for Mc Clellan-Palomar Airport

Retrieved 2020/11/27 13:53 UTC (14 minutes ago):

KCRQ 271353Z AUTO 02004KT 10SM CLR 09/M08 A3011 RMK AO2 SLP195 T00891083

Aviation forecast (TAF) for Mc Clellan-Palomar Airport

Retrieved 2020/11/27 12:30 UTC (2 hours ago):

TAF KCRQ 271128Z 2712/2812 05004KT P6SM SKC FM272000 27009KT P6SM SKC FM280200 07004KT P6SM SKC